Time;durP1;ratioP1;P1;durP2;ratioP2;P2;SDS_P1;SDS_P2;PMS_P1;PMS_P2;Temp;Humidity;BMP_temperature;BMP_pressure;BME280_temperature;BME280_humidity;BME280_pressure;Samples;Min_cycle;Max_cycle;Signal;HPM_P1;HPM_P2
2022/03/10 00:00:29;;;;;;;3.60;3.40;;;;;;;2.50;45.50;101913.53;6012762;23;20027;-70
2022/03/10 00:02:55;;;;;;;3.15;3.05;;;;;;;2.59;46.21;101932.56;6042919;23;20026;-70
2022/03/10 00:05:22;;;;;;;3.20;3.10;;;;;;;2.60;46.24;101929.06;6002643;23;20022;-69
2022/03/10 00:07:49;;;;;;;2.90;2.80;;;;;;;2.91;45.52;101957.63;6044022;23;20057;-69
2022/03/10 00:10:16;;;;;;;3.50;3.40;;;;;;;2.88;44.93;101964.53;6002451;23;20027;-70
2022/03/10 00:12:50;;;;;;;4.47;3.85;;;;;;;2.79;45.54;101960.22;6036484;23;20090;-70
2022/03/10 00:15:19;;;;;;;4.65;4.45;;;;;;;2.70;46.33;101971.44;6004654;23;20086;-70
2022/03/10 00:17:46;;;;;;;3.58;2.85;;;;;;;2.69;45.72;101968.84;6028538;23;20031;-69
2022/03/10 00:20:12;;;;;;;4.85;4.65;;;;;;;2.62;46.12;101961.91;6009943;23;20055;-72
2022/03/10 00:22:44;;;;;;;4.00;3.80;;;;;;;2.57;46.23;101962.78;6050749;23;20019;-70
2022/03/10 00:25:10;;;;;;;5.95;5.38;;;;;;;2.15;45.38;101901.41;5998932;23;20082;-70
2022/03/10 00:27:37;;;;;;;3.13;3.00;;;;;;;2.23;46.43;101915.25;6030585;23;20608;-70
2022/03/10 00:30:04;;;;;;;5.70;5.40;;;;;;;2.27;46.06;101916.13;6025847;23;20390;-70
2022/03/10 00:32:31;;;;;;;3.30;3.20;;;;;;;2.56;46.35;101960.19;6033129;23;20023;-69
2022/03/10 00:34:57;;;;;;;3.65;3.45;;;;;;;2.44;46.02;101936.84;6002947;23;20134;-70
2022/03/10 00:37:24;;;;;;;3.67;3.53;;;;;;;2.31;45.92;101910.94;6018620;23;20031;-70
2022/03/10 00:39:50;;;;;;;3.17;3.08;;;;;;;2.62;45.85;101962.78;6004569;23;20452;-70
2022/03/10 00:42:17;;;;;;;5.13;4.93;;;;;;;2.69;45.66;101967.13;6031880;23;20042;-70
2022/03/10 00:44:43;;;;;;;2.80;2.70;;;;;;;2.66;45.62;101959.31;6009497;23;20015;-70
2022/03/10 00:47:09;;;;;;;7.13;6.78;;;;;;;1.57;45.36;101794.28;6029121;23;20027;-69
2022/03/10 00:49:36;;;;;;;3.25;3.15;;;;;;;2.57;45.83;101975.75;6025294;23;20551;-70
2022/03/10 00:52:04;;;;;;;4.72;4.43;;;;;;;2.50;45.74;101973.13;6031900;23;20424;-70
2022/03/10 00:54:31;;;;;;;3.00;2.90;;;;;;;2.45;46.31;101982.63;6014353;23;20019;-69
2022/03/10 00:56:57;;;;;;;2.95;2.85;;;;;;;2.42;46.47;101987.81;6028280;23;20577;-70
2022/03/10 00:59:24;;;;;;;3.10;3.00;;;;;;;2.37;45.98;101980.03;6003080;23;20552;-69
2022/03/10 01:01:50;;;;;;;2.72;2.63;;;;;;;2.39;46.58;101989.53;6015704;23;20097;-70
2022/03/10 01:04:17;;;;;;;5.35;5.07;;;;;;;2.15;46.25;101935.94;5999277;23;20030;-70
2022/03/10 01:06:43;;;;;;;3.00;2.90;;;;;;;2.45;46.12;101985.22;6022295;23;20077;-71
2022/03/10 01:09:10;;;;;;;4.57;4.38;;;;;;;2.41;46.86;101986.94;6000860;23;20011;-70
2022/03/10 01:11:36;;;;;;;3.35;3.22;;;;;;;2.32;47.25;101986.91;6022378;23;20279;-70
2022/03/10 01:14:02;;;;;;;4.28;4.07;;;;;;;1.95;46.41;101933.28;6027075;23;20050;-70
2022/03/10 01:16:29;;;;;;;3.22;3.13;;;;;;;2.17;46.93;101988.59;6024991;23;20035;-70
2022/03/10 01:18:56;;;;;;;3.13;2.95;;;;;;;1.97;46.42;101959.19;5997296;23;20109;-69
2022/03/10 01:21:22;;;;;;;3.08;2.95;;;;;;;1.99;47.30;101973.84;6016320;23;20055;-70
2022/03/10 01:23:49;;;;;;;2.95;2.85;;;;;;;2.03;47.59;101984.25;6006102;23;20347;-70
2022/03/10 01:26:15;;;;;;;4.63;4.43;;;;;;;1.78;47.98;101951.34;6031752;23;20095;-70
2022/03/10 01:28:42;;;;;;;4.00;3.78;;;;;;;1.87;48.29;101979.00;6001386;23;20440;-68
2022/03/10 01:31:08;;;;;;;4.55;4.35;;;;;;;1.42;48.32;101910.63;6024659;23;20085;-70
2022/03/10 01:33:37;;;;;;;3.40;3.20;;;;;;;1.78;48.25;101968.56;5972680;23;20020;-69
2022/03/10 01:36:03;;;;;;;3.78;3.60;;;;;;;1.78;47.99;101966.00;6002627;23;20019;-70
2022/03/10 01:38:32;;;;;;;2.88;2.78;;;;;;;1.74;48.76;101964.25;5973050;23;20012;-69
2022/03/10 01:40:59;;;;;;;3.50;3.30;;;;;;;0.46;48.61;101768.75;5981289;23;20034;-74
2022/03/10 01:43:25;;;;;;;3.33;3.20;;;;;;;1.62;48.78;101961.59;5974189;23;20042;-72
2022/03/10 01:45:52;;;;;;;2.90;2.80;;;;;;;1.42;48.93;101943.38;6002939;23;20038;-71
2022/03/10 01:48:18;;;;;;;6.32;6.03;;;;;;;1.46;49.04;101955.47;5976243;23;20295;-72
2022/03/10 01:50:44;;;;;;;2.70;2.60;;;;;;;1.36;49.39;101947.69;6000580;23;20090;-72
2022/03/10 01:53:11;;;;;;;5.45;5.15;;;;;;;1.43;49.71;101977.03;5999724;23;20021;-69
2022/03/10 01:55:45;;;;;;;;;;;;;;;1.39;49.59;101967.53;6012949;23;20038;-69
2022/03/10 01:58:12;;;;;;;4.90;4.70;;;;;;;1.35;49.39;101969.22;5978358;23;19907;-69
2022/03/10 02:00:38;;;;;;;2.90;2.80;;;;;;;1.32;49.32;101968.31;6002444;23;20007;-70
2022/03/10 02:03:05;;;;;;;3.50;3.40;;;;;;;1.25;50.63;101956.22;5968793;23;20030;-71
2022/03/10 02:05:32;;;;;;;4.65;4.45;;;;;;;1.01;50.38;101902.63;5992582;23;20086;-70
2022/03/10 02:10:47;;;;;;;2.75;2.65;;;;;;;1.29;51.03;101960.56;5953667;23;20501;-70
2022/03/10 02:13:14;;;;;;;4.47;4.28;;;;;;;1.27;50.28;101963.13;5979188;23;20055;-70
2022/03/10 02:18:28;;;;;;;3.25;3.15;;;;;;;1.38;51.56;101958.00;6001076;23;20027;-70
2022/03/10 02:20:54;;;;;;;2.95;2.85;;;;;;;1.25;51.37;101932.94;6004670;23;20090;-69
2022/03/10 02:23:22;;;;;;;3.65;3.55;;;;;;;1.41;51.84;101949.44;5972560;23;20348;-69
2022/03/10 02:25:49;;;;;;;3.40;3.20;;;;;;;1.21;52.02;101916.56;6006887;23;21100;-69
2022/03/10 02:28:16;;;;;;;4.13;3.92;;;;;;;1.57;51.63;101959.00;5966886;24;20040;-72
2022/03/10 02:30:43;;;;;;;2.80;2.70;;;;;;;1.65;51.38;101956.47;6001334;23;20019;-69
2022/03/10 02:33:09;;;;;;;5.40;4.90;;;;;;;1.71;50.75;101953.91;5975936;23;20035;-70
2022/03/10 02:35:36;;;;;;;3.25;3.15;;;;;;;1.67;51.77;101958.19;6008746;23;20107;-69
2022/03/10 02:38:02;;;;;;;3.58;3.45;;;;;;;1.49;51.57;101934.81;5972808;23;20043;-69
2022/03/10 02:40:29;;;;;;;3.05;2.95;;;;;;;1.51;52.19;101956.38;5980227;23;20035;-69
2022/03/10 02:42:56;;;;;;;3.10;3.00;;;;;;;1.23;51.94;101921.75;6008920;23;20084;-69
2022/03/10 02:45:23;;;;;;;3.58;3.40;;;;;;;1.28;52.13;101949.31;6002174;23;20015;-70
2022/03/10 02:47:50;;;;;;;3.28;3.17;;;;;;;0.85;52.50;101894.75;5963622;23;20476;-69
2022/03/10 02:50:16;;;;;;;4.75;4.55;;;;;;;0.81;52.16;101905.06;6009610;23;20027;-69
2022/03/10 02:52:44;;;;;;;2.60;2.50;;;;;;;0.91;52.76;101922.38;6008683;23;20015;-71
2022/03/10 02:55:11;;;;;;;4.28;4.07;;;;;;;0.98;52.39;101939.66;6004813;23;20061;-70
2022/03/10 02:57:37;;;;;;;3.42;3.28;;;;;;;0.42;52.85;101858.25;5971562;23;20024;-70
2022/03/10 03:00:06;;;;;;;3.72;3.55;;;;;;;0.89;52.65;101934.44;5999243;23;20169;-70
2022/03/10 03:02:32;;;;;;;2.90;2.80;;;;;;;-0.38;53.09;101725.94;5964197;24;20090;-70
2022/03/10 03:04:59;;;;;;;4.82;4.35;;;;;;;0.76;52.77;101929.16;5999088;23;20311;-70
2022/03/10 03:07:26;;;;;;;3.25;3.05;;;;;;;0.47;53.06;101891.88;5941296;24;20024;-71
2022/03/10 03:09:52;;;;;;;2.88;2.78;;;;;;;0.76;53.77;101955.00;5996811;23;20023;-70
2022/03/10 03:12:18;;;;;;;4.10;3.90;;;;;;;0.53;53.60;101920.34;5982368;23;20625;-70
2022/03/10 03:14:45;;;;;;;3.13;3.03;;;;;;;0.39;53.34;101894.38;6002244;23;20086;-70
2022/03/10 03:17:11;;;;;;;3.25;2.80;;;;;;;0.66;54.65;101949.72;6015304;23;20051;-70
2022/03/10 03:19:38;;;;;;;3.60;3.40;;;;;;;0.56;54.21;101941.00;5982506;23;20359;-69
2022/03/10 03:22:04;;;;;;;4.55;4.35;;;;;;;0.41;54.27;101915.94;6000394;23;20419;-69
2022/03/10 03:24:32;;;;;;;2.70;2.60;;;;;;;0.39;54.80;101915.91;5951696;24;20075;-70
2022/03/10 03:26:58;;;;;;;2.53;2.42;;;;;;;0.18;54.93;101903.66;6002639;23;20015;-70
2022/03/10 03:29:25;;;;;;;3.88;3.58;;;;;;;0.12;55.26;101901.03;5968548;24;20086;-70
2022/03/10 03:31:52;;;;;;;2.90;2.80;;;;;;;0.01;55.81;101878.53;6002046;23;20119;-70
2022/03/10 03:34:18;;;;;;;4.15;3.95;;;;;;;0.30;55.38;101928.75;5993433;23;20018;-70
2022/03/10 03:36:45;;;;;;;2.80;2.70;;;;;;;-0.74;55.68;101770.22;5963310;23;20034;-70
2022/03/10 03:39:13;;;;;;;4.68;4.47;;;;;;;0.34;56.96;101952.84;5991511;23;20011;-69
2022/03/10 03:41:40;;;;;;;3.03;2.92;;;;;;;0.00;56.21;101882.84;6000141;23;20026;-69
2022/03/10 03:44:08;;;;;;;4.70;4.30;;;;;;;0.18;57.21;101919.16;5989660;23;20010;-72
2022/03/10 03:46:36;;;;;;;3.20;3.10;;;;;;;0.35;56.59;101950.28;5995844;23;20635;-70
2022/03/10 03:49:07;;;;;;;4.18;3.97;;;;;;;0.37;56.94;101953.75;5979355;23;20488;-70
2022/03/10 03:51:34;;;;;;;4.13;3.92;;;;;;;0.46;57.56;101949.53;5980879;23;20421;-70
2022/03/10 03:54:01;;;;;;;3.03;2.92;;;;;;;0.53;57.12;101956.50;5998779;23;20057;-71
2022/03/10 03:56:27;;;;;;;3.63;3.45;;;;;;;0.45;57.26;101947.81;5958144;23;20509;-70
2022/03/10 03:58:53;;;;;;;3.55;3.25;;;;;;;0.15;58.14;101919.09;6000782;23;20074;-70
2022/03/10 04:01:20;;;;;;;7.80;3.05;;;;;;;0.23;58.08;101934.69;5976837;23;20018;-69
2022/03/10 04:03:47;;;;;;;3.20;3.00;;;;;;;-0.23;57.37;101869.66;6001511;23;20015;-70
2022/03/10 04:06:13;;;;;;;4.55;4.35;;;;;;;0.24;58.62;101961.34;5972059;23;20024;-70
2022/03/10 04:08:40;;;;;;;2.50;2.40;;;;;;;-0.13;58.34;101910.19;5974347;23;20047;-70
2022/03/10 04:11:06;;;;;;;4.72;4.53;;;;;;;0.08;59.51;101947.41;5988586;23;20172;-70
2022/03/10 04:13:33;;;;;;;2.60;2.50;;;;;;;0.14;60.11;101932.00;5997685;23;20074;-70
2022/03/10 04:15:59;;;;;;;2.58;2.47;;;;;;;0.43;58.77;101967.59;6008850;23;20033;-70
2022/03/10 04:18:26;;;;;;;5.88;3.78;;;;;;;0.37;59.39;101970.97;6003769;23;20027;-69
2022/03/10 04:20:52;;;;;;;3.13;3.03;;;;;;;0.15;58.48;101946.66;5967665;23;20012;-69
2022/03/10 04:23:19;;;;;;;3.83;3.70;;;;;;;0.25;59.78;101966.53;5996479;23;20046;-70
2022/03/10 04:25:45;;;;;;;2.78;2.67;;;;;;;-0.01;60.13;101936.13;5980492;23;20032;-70
2022/03/10 04:28:12;;;;;;;2.42;2.33;;;;;;;-0.16;59.42;101909.28;5980911;23;20034;-69
2022/03/10 04:30:44;;;;;;;2.45;2.35;;;;;;;0.35;59.20;101972.69;5979152;23;20020;-70
2022/03/10 04:33:11;;;;;;;2.70;2.60;;;;;;;0.10;59.84;101927.66;5986016;23;20048;-70
2022/03/10 04:35:38;;;;;;;2.72;2.63;;;;;;;0.47;59.84;101977.97;5993308;23;20317;-70
2022/03/10 04:38:04;;;;;;;3.03;2.85;;;;;;;0.35;59.85;101963.22;5995384;23;20477;-70
2022/03/10 04:40:32;;;;;;;2.92;2.78;;;;;;;0.44;59.73;101977.94;5996146;23;20050;-69
2022/03/10 04:42:58;;;;;;;2.45;2.35;;;;;;;0.45;59.62;101966.75;5976379;23;20015;-70
2022/03/10 04:45:25;;;;;;;3.03;2.92;;;;;;;0.52;59.43;101972.84;5998233;23;20022;-70
2022/03/10 04:47:52;;;;;;;2.60;2.50;;;;;;;0.54;59.49;101958.22;5975881;24;20039;-70
2022/03/10 04:50:18;;;;;;;3.83;3.63;;;;;;;0.56;59.10;101953.94;5996628;23;20513;-70
2022/03/10 04:52:45;;;;;;;2.60;2.50;;;;;;;0.14;59.88;101878.69;5974199;23;20018;-69
2022/03/10 04:55:13;;;;;;;5.03;4.82;;;;;;;0.65;59.53;101979.88;5985571;23;20022;-69
2022/03/10 04:57:40;;;;;;;6.15;2.67;;;;;;;0.52;59.49;101967.66;5970275;24;20039;-70
2022/03/10 05:00:11;;;;;;;4.72;4.53;;;;;;;0.58;59.47;101981.53;5952285;23;20027;-70
2022/03/10 05:02:39;;;;;;;2.42;2.33;;;;;;;0.54;59.76;101978.88;5972581;23;20297;-69
2022/03/10 05:05:07;;;;;;;3.75;3.58;;;;;;;0.19;59.75;101938.94;5995518;23;20364;-70
2022/03/10 05:07:34;;;;;;;2.65;2.55;;;;;;;0.51;59.74;101986.63;5969575;24;20402;-70
2022/03/10 05:10:01;;;;;;;4.88;4.47;;;;;;;0.51;59.92;101981.44;5976927;23;20023;-70
2022/03/10 05:12:27;;;;;;;2.90;2.80;;;;;;;0.22;59.56;101939.81;5968634;24;20019;-69
2022/03/10 05:14:54;;;;;;;3.00;2.90;;;;;;;-0.03;60.35;101900.84;5995881;23;20039;-70
2022/03/10 05:17:23;;;;;;;4.40;4.20;;;;;;;0.39;60.76;101984.78;5993022;23;20042;-69
2022/03/10 05:19:51;;;;;;;2.50;2.40;;;;;;;0.46;60.57;101986.56;5964370;24;20038;-70
2022/03/10 05:22:18;;;;;;;4.35;4.15;;;;;;;0.36;59.67;101975.28;5991161;23;20085;-69
2022/03/10 05:24:45;;;;;;;2.85;2.75;;;;;;;0.31;59.48;101989.84;5997550;23;20202;-70
2022/03/10 05:27:12;;;;;;;4.65;4.45;;;;;;;-0.11;59.94;101954.94;5966607;23;20143;-69
2022/03/10 05:29:40;;;;;;;3.33;3.13;;;;;;;0.17;60.84;101992.28;5972262;23;20057;-70
2022/03/10 05:32:17;;;;;;;4.50;4.30;;;;;;;0.06;61.26;101974.91;5994118;23;20039;-70
2022/03/10 05:34:44;;;;;;;3.28;3.17;;;;;;;-0.12;60.10;101953.22;5995440;23;20043;-70
2022/03/10 05:37:10;;;;;;;3.97;3.80;;;;;;;-0.04;60.93;101967.09;5986727;23;20486;-69
2022/03/10 05:39:39;;;;;;;2.40;2.30;;;;;;;0.09;60.82;101996.47;5989604;23;20019;-69
2022/03/10 05:42:05;;;;;;;3.40;3.30;;;;;;;0.09;61.68;101987.88;5967405;24;20038;-70
2022/03/10 05:44:32;;;;;;;2.55;2.45;;;;;;;0.02;61.55;101978.31;5995562;23;20019;-70
2022/03/10 05:46:58;;;;;;;3.55;3.35;;;;;;;-0.22;61.49;101926.44;5948293;23;20016;-70
2022/03/10 05:49:25;;;;;;;2.88;2.78;;;;;;;-0.16;60.75;101932.50;5995106;23;20426;-70
2022/03/10 05:51:51;;;;;;;2.60;2.50;;;;;;;-0.12;61.02;101939.44;5951425;24;20024;-70
2022/03/10 05:54:18;;;;;;;3.63;3.42;;;;;;;0.23;61.35;101998.38;5988468;23;20015;-70
2022/03/10 05:56:44;;;;;;;2.97;2.80;;;;;;;0.09;61.23;101968.09;5954639;24;20473;-70
2022/03/10 05:59:10;;;;;;;4.75;4.55;;;;;;;0.27;60.75;101995.81;5991452;23;20020;-69
2022/03/10 06:01:37;;;;;;;2.42;2.33;;;;;;;0.32;60.12;102007.09;5996421;23;20027;-70
2022/03/10 06:04:03;;;;;;;3.97;3.80;;;;;;;0.19;61.01;101977.66;5965373;24;20016;-70
2022/03/10 06:06:34;;;;;;;4.38;4.07;;;;;;;-0.20;61.06;101916.16;5999460;23;20127;-70
2022/03/10 06:09:01;;;;;;;3.42;3.22;;;;;;;0.17;60.08;101981.09;5982156;23;20098;-71
2022/03/10 06:11:27;;;;;;;3.67;3.47;;;;;;;0.16;60.32;101982.81;6001585;23;20011;-71
2022/03/10 06:13:54;;;;;;;2.70;2.60;;;;;;;0.35;60.65;102014.00;5961769;24;20020;-71
2022/03/10 06:16:21;;;;;;;2.97;2.88;;;;;;;-0.76;59.99;101818.31;5995368;23;20849;-71
2022/03/10 06:18:47;;;;;;;4.70;2.88;;;;;;;0.38;60.54;102016.59;5979337;23;20016;-70
2022/03/10 06:21:15;;;;;;;5.93;5.60;;;;;;;0.32;60.31;102001.94;5993519;23;20045;-70
2022/03/10 06:23:41;;;;;;;2.30;2.20;;;;;;;0.31;60.33;101989.00;6000562;23;20020;-70
2022/03/10 06:26:08;;;;;;;4.25;4.05;;;;;;;0.33;59.90;101998.47;5963070;23;20090;-71
2022/03/10 06:28:34;;;;;;;2.60;2.50;;;;;;;0.66;60.88;102024.63;5990516;23;20054;-71
2022/03/10 06:31:01;;;;;;;3.97;3.78;;;;;;;0.37;59.37;101960.66;5969497;24;20106;-71
2022/03/10 06:33:27;;;;;;;2.70;2.60;;;;;;;0.76;58.96;101995.44;6000359;23;20025;-71
2022/03/10 06:35:54;;;;;;;3.05;2.95;;;;;;;0.68;58.44;101958.34;6002918;23;20035;-71
2022/03/10 06:38:20;;;;;;;3.55;3.35;;;;;;;1.19;58.08;102027.72;6025627;23;20926;-71
2022/03/10 06:40:47;;;;;;;3.15;2.95;;;;;;;1.11;57.66;102000.09;6022432;23;20023;-70
2022/03/10 06:43:13;;;;;;;4.45;4.25;;;;;;;1.30;57.36;102027.78;5987849;23;20020;-70
2022/03/10 06:45:40;;;;;;;2.70;2.60;;;;;;;1.09;58.26;101994.03;6018213;23;20022;-70
2022/03/10 06:48:06;;;;;;;4.75;4.55;;;;;;;1.18;57.19;102001.84;6024558;23;20051;-71
2022/03/10 06:50:33;;;;;;;2.67;2.58;;;;;;;1.27;57.89;102014.00;6027643;23;20034;-70
2022/03/10 06:52:59;;;;;;;3.92;3.72;;;;;;;1.42;57.48;102032.19;6017236;23;20094;-71
2022/03/10 06:55:26;;;;;;;3.85;3.65;;;;;;;1.46;57.96;102021.00;6022980;23;20030;-70
2022/03/10 06:57:53;;;;;;;4.80;4.45;;;;;;;1.50;57.82;102030.53;6022055;23;20519;-71
2022/03/10 07:00:20;;;;;;;3.78;3.58;;;;;;;0.99;56.84;101933.63;5994577;23;20438;-70
2022/03/10 07:02:48;;;;;;;2.90;2.80;;;;;;;1.37;56.83;101993.38;5998988;23;20355;-71
2022/03/10 07:05:15;;;;;;;4.80;4.60;;;;;;;1.24;57.17;101962.25;6025256;23;20019;-72
2022/03/10 07:07:41;;;;;;;2.80;2.70;;;;;;;1.58;57.03;102008.19;5998146;23;20082;-71
2022/03/10 07:10:09;;;;;;;4.80;4.60;;;;;;;1.74;56.23;101997.88;6024225;23;20500;-72
2022/03/10 07:12:38;;;;;;;2.80;2.70;;;;;;;2.15;55.67;102039.53;5995087;23;20020;-71
2022/03/10 07:15:07;;;;;;;4.22;4.03;;;;;;;2.34;55.36;102039.59;6018767;23;20543;-72
2022/03/10 07:17:33;;;;;;;2.90;2.80;;;;;;;2.41;54.55;102025.81;6024913;23;20178;-71
2022/03/10 07:20:00;;;;;;;3.30;3.20;;;;;;;2.54;53.52;102024.09;5999663;23;20190;-73
2022/03/10 07:22:26;;;;;;;3.00;2.90;;;;;;;2.70;53.33;102020.69;6022545;23;20061;-71
2022/03/10 07:24:53;;;;;;;2.90;2.80;;;;;;;3.04;52.47;102058.75;5997283;23;20023;-71
2022/03/10 07:27:20;;;;;;;3.92;3.72;;;;;;;3.01;51.41;102005.16;6023673;23;20349;-72
2022/03/10 07:29:46;;;;;;;3.20;3.10;;;;;;;3.22;50.94;102009.47;6020331;23;20442;-71
2022/03/10 07:32:13;;;;;;;5.03;4.82;;;;;;;2.99;50.91;101939.47;6024159;23;20023;-71
2022/03/10 07:34:39;;;;;;;2.90;2.80;;;;;;;3.71;50.72;102044.88;5974581;23;20024;-70
2022/03/10 07:37:06;;;;;;;4.15;3.95;;;;;;;3.83;50.24;102041.38;5979550;23;20019;-71
2022/03/10 07:39:32;;;;;;;3.83;3.63;;;;;;;3.83;49.36;102025.81;5993664;23;20015;-71
2022/03/10 07:42:00;;;;;;;3.40;3.20;;;;;;;3.95;48.73;102018.00;5982195;23;20027;-71
2022/03/10 07:44:27;;;;;;;3.50;3.38;;;;;;;3.64;48.19;101928.94;5963399;24;20032;-71
2022/03/10 07:46:53;;;;;;;3.00;2.90;;;;;;;4.42;48.48;102037.69;5992763;23;20391;-71
2022/03/10 07:49:20;;;;;;;4.30;4.10;;;;;;;4.20;47.75;101985.81;5964560;24;20067;-71
2022/03/10 07:51:46;;;;;;;3.00;2.90;;;;;;;4.60;47.26;102041.94;6000677;23;20030;-71
2022/03/10 07:54:13;;;;;;;6.43;6.13;;;;;;;4.49;47.53;101996.94;5961809;24;20365;-72
2022/03/10 07:56:39;;;;;;;3.30;3.20;;;;;;;3.59;46.42;101826.00;5996577;23;20023;-74
2022/03/10 07:59:06;;;;;;;5.03;4.80;;;;;;;4.87;46.74;102016.63;5949624;23;20031;-72
2022/03/10 08:01:32;;;;;;;4.25;4.05;;;;;;;5.01;46.67;102022.56;5987143;23;20024;-71
2022/03/10 08:03:59;;;;;;;3.00;2.90;;;;;;;5.34;45.62;102057.03;5969438;24;20473;-71
2022/03/10 08:06:27;;;;;;;3.83;3.63;;;;;;;4.99;45.85;101956.69;5970921;23;20074;-73
2022/03/10 08:08:53;;;;;;;3.50;3.40;;;;;;;5.59;44.23;102040.31;5964848;24;20095;-71
2022/03/10 08:11:20;;;;;;;4.60;4.40;;;;;;;5.65;45.24;102041.09;5987224;23;20007;-72
2022/03/10 08:13:47;;;;;;;3.33;3.22;;;;;;;5.77;43.99;102039.25;5965422;24;20062;-71
2022/03/10 08:16:14;;;;;;;5.93;5.63;;;;;;;5.63;44.29;102002.06;5988141;23;20151;-71
2022/03/10 08:18:40;;;;;;;4.15;3.95;;;;;;;6.09;43.63;102042.41;5967174;24;20016;-71
2022/03/10 08:21:09;;;;;;;5.57;5.38;;;;;;;6.05;42.12;102025.06;5976746;23;20423;-70
2022/03/10 08:23:36;;;;;;;3.50;3.40;;;;;;;6.17;43.39;102044.06;5992699;23;20090;-71
2022/03/10 08:26:02;;;;;;;3.92;3.78;;;;;;;6.30;43.19;102041.28;5985008;23;20062;-71
2022/03/10 08:28:29;;;;;;;3.40;3.30;;;;;;;6.41;43.33;102038.53;5965385;24;20020;-71
2022/03/10 08:30:56;;;;;;;4.22;4.03;;;;;;;6.58;41.87;102039.16;5993328;23;20042;-70
2022/03/10 08:33:24;;;;;;;3.40;3.30;;;;;;;6.55;41.26;102024.41;5963720;23;20709;-71
2022/03/10 08:35:52;;;;;;;3.22;3.13;;;;;;;6.74;41.63;102037.22;5996953;23;20086;-71
2022/03/10 08:38:18;;;;;;;5.78;5.38;;;;;;;6.68;41.57;102017.28;5963067;23;20043;-71
2022/03/10 08:40:44;;;;;;;3.75;3.58;;;;;;;7.02;40.40;102024.59;5992468;23;20023;-72
2022/03/10 08:43:12;;;;;;;4.88;4.68;;;;;;;7.12;41.64;102018.34;5970075;23;20018;-73
2022/03/10 08:45:39;;;;;;;3.40;3.30;;;;;;;7.14;40.40;102010.50;5967371;23;20619;-71
2022/03/10 08:48:06;;;;;;;5.43;5.13;;;;;;;7.29;40.57;102025.88;5967795;23;20038;-70
2022/03/10 08:50:33;;;;;;;3.30;3.20;;;;;;;7.27;40.29;102004.16;5991906;23;20011;-70
2022/03/10 08:52:59;;;;;;;3.60;3.50;;;;;;;7.49;40.37;102014.22;5961660;23;20056;-70
2022/03/10 08:55:26;;;;;;;18.33;17.33;;;;;;;7.51;40.47;102000.22;5958638;23;20483;-72
2022/03/10 08:57:52;;;;;;;4.13;3.65;;;;;;;7.72;38.44;102024.25;5890586;23;20105;-73
2022/03/10 09:00:21;;;;;;;5.55;5.35;;;;;;;7.63;38.60;102006.13;5987083;23;20023;-70
2022/03/10 09:02:54;;;;;;;3.90;3.70;;;;;;;7.79;38.08;102020.63;5962784;23;20697;-71
2022/03/10 09:05:23;;;;;;;5.10;4.90;;;;;;;7.65;38.30;101966.00;5981473;23;20587;-71
2022/03/10 09:07:50;;;;;;;5.25;5.00;;;;;;;8.01;37.40;102008.00;5968898;23;20026;-72
2022/03/10 09:10:17;;;;;;;5.53;5.30;;;;;;;8.16;38.35;102004.22;5999622;23;20047;-71
2022/03/10 09:12:43;;;;;;;4.75;4.47;;;;;;;7.76;37.80;101918.78;5964955;23;20284;-71
2022/03/10 09:15:14;;;;;;;6.63;6.13;;;;;;;8.35;38.08;102005.50;5993987;23;20047;-71
2022/03/10 09:17:40;;;;;;;4.68;4.38;;;;;;;8.08;37.66;101925.94;5969551;23;20578;-71
2022/03/10 09:20:08;;;;;;;4.55;4.25;;;;;;;7.69;37.59;101837.03;5988599;23;20086;-71
2022/03/10 09:22:34;;;;;;;4.05;3.85;;;;;;;8.72;37.82;102004.72;5967739;23;20011;-74
2022/03/10 09:25:02;;;;;;;4.82;4.43;;;;;;;8.60;37.56;101944.84;5999841;23;20272;-71
2022/03/10 09:27:29;;;;;;;5.05;4.75;;;;;;;8.81;37.01;101977.47;5959362;23;20047;-71
2022/03/10 09:29:56;;;;;;;3.33;3.22;;;;;;;9.10;37.15;102002.94;5997072;23;20094;-71
2022/03/10 09:32:23;;;;;;;6.25;5.95;;;;;;;9.19;36.69;102004.47;5971541;23;20028;-71
2022/03/10 09:34:49;;;;;;;4.85;4.55;;;;;;;9.16;36.59;101971.34;6009641;23;20027;-71
2022/03/10 09:37:16;;;;;;;5.80;5.53;;;;;;;9.16;36.54;101947.78;5985247;23;20035;-71
2022/03/10 09:39:42;;;;;;;4.93;4.60;;;;;;;9.53;36.72;101999.19;6019161;23;20101;-71
2022/03/10 09:42:09;;;;;;;4.20;4.00;;;;;;;9.65;36.17;101997.16;5959539;23;20023;-72
2022/03/10 09:44:36;;;;;;;5.60;5.22;;;;;;;9.84;35.07;101997.47;6023586;23;20336;-71
2022/03/10 09:47:04;;;;;;;4.40;4.13;;;;;;;9.87;35.54;101973.81;6015178;23;20072;-71
2022/03/10 09:49:34;;;;;;;4.75;4.50;;;;;;;10.01;34.49;101970.78;5998708;23;20090;-71
2022/03/10 09:52:01;;;;;;;5.50;5.13;;;;;;;10.19;34.69;101985.97;6012656;23;20023;-71
2022/03/10 09:54:29;;;;;;;5.85;5.38;;;;;;;10.09;34.30;101951.28;5987232;23;20111;-71
2022/03/10 09:56:56;;;;;;;4.00;3.80;;;;;;;10.33;34.39;101986.44;6003479;23;20031;-71
2022/03/10 09:59:26;;;;;;;6.57;6.18;;;;;;;10.45;34.08;101985.22;6016435;23;20097;-72
2022/03/10 10:01:54;;;;;;;5.05;4.78;;;;;;;10.44;34.04;101953.78;6006661;23;20037;-72
2022/03/10 10:04:21;;;;;;;5.82;5.50;;;;;;;10.32;34.00;101906.03;6001297;23;20366;-71
2022/03/10 10:07:05;;;;;;;4.40;4.20;;;;;;;10.78;34.51;101971.91;6025818;23;20461;-71
2022/03/10 10:09:40;;;;;;;5.15;4.75;;;;;;;11.03;34.19;101973.75;6026021;23;20163;-71
2022/03/10 10:12:08;;;;;;;4.47;4.28;;;;;;;11.12;33.17;101968.16;6009718;23;20039;-71
2022/03/10 10:14:40;;;;;;;5.18;4.82;;;;;;;11.18;32.07;101965.34;6032200;23;20043;-72
2022/03/10 10:17:07;;;;;;;4.32;4.13;;;;;;;10.81;32.43;101887.81;5981876;23;20106;-71
2022/03/10 10:19:35;;;;;;;5.75;5.38;;;;;;;11.29;33.30;101962.34;6008578;23;20010;-71
2022/03/10 10:22:24;;;;;;;4.20;4.00;;;;;;;11.43;33.31;101953.97;6000498;23;20026;-70
2022/03/10 10:24:59;;;;;;;4.32;4.13;;;;;;;11.63;32.59;101971.69;6030606;23;20234;-72
2022/03/10 10:27:26;;;;;;;4.82;4.30;;;;;;;11.69;31.86;101960.94;6006365;23;20029;-72
2022/03/10 10:29:55;;;;;;;5.20;4.88;;;;;;;11.53;32.78;101908.03;6036759;23;20031;-72
2022/03/10 10:32:33;;;;;;;6.38;6.07;;;;;;;11.37;32.13;101890.19;5998034;23;20115;-71
2022/03/10 10:35:09;;;;;;;3.97;3.78;;;;;;;12.00;31.78;101959.81;6032137;23;20034;-71
2022/03/10 10:37:37;;;;;;;4.68;4.47;;;;;;;11.14;31.82;101785.91;5974473;23;20101;-71
2022/03/10 10:40:08;;;;;;;5.47;5.07;;;;;;;11.50;30.83;101856.41;6031281;23;20099;-72
2022/03/10 10:42:38;;;;;;;4.80;4.60;;;;;;;11.80;31.66;101853.53;6004670;23;20023;-73
2022/03/10 10:45:31;;;;;;;5.22;4.93;;;;;;;12.49;30.90;101948.22;6025550;23;20087;-72
2022/03/10 10:48:09;;;;;;;5.95;5.55;;;;;;;12.60;30.92;101944.31;6030861;23;20022;-71
2022/03/10 10:50:38;;;;;;;4.63;4.43;;;;;;;11.93;30.35;101802.19;5999128;23;20369;-71
2022/03/10 10:53:06;;;;;;;5.20;4.90;;;;;;;12.87;29.04;101948.44;6023500;23;20086;-72
2022/03/10 10:55:35;;;;;;;9.90;5.53;;;;;;;12.84;29.59;101945.06;5998266;23;20073;-71
2022/03/10 10:58:14;;;;;;;4.72;4.53;;;;;;;12.83;28.92;101920.50;5993576;23;20093;-71
2022/03/10 11:00:46;;;;;;;4.45;4.25;;;;;;;13.02;29.05;101931.09;6023631;23;20024;-71
2022/03/10 11:03:20;;;;;;;5.55;5.28;;;;;;;13.24;29.47;101930.19;6025371;23;20034;-71
2022/03/10 11:05:48;;;;;;;4.68;4.47;;;;;;;12.40;29.25;101773.97;6025546;23;20046;-74
2022/03/10 11:08:20;;;;;;;6.30;6.00;;;;;;;13.51;29.04;101917.59;6000313;23;20035;-72
2022/03/10 11:10:47;;;;;;;6.20;5.80;;;;;;;13.62;28.04;101930.31;6024771;23;20188;-72
2022/03/10 11:13:20;;;;;;;5.32;5.00;;;;;;;13.26;28.26;101852.75;6004224;23;20545;-72
2022/03/10 11:15:48;;;;;;;8.13;6.60;;;;;;;13.61;27.64;101892.53;6022720;23;20256;-71
2022/03/10 11:18:15;;;;;;;6.03;5.63;;;;;;;13.11;27.37;101801.59;5988867;23;20145;-71
2022/03/10 11:20:47;;;;;;;6.35;6.00;;;;;;;13.80;27.57;101903.06;6025504;23;20350;-72
2022/03/10 11:23:25;;;;;;;6.03;5.63;;;;;;;13.98;27.65;101904.00;5985367;23;20464;-72
2022/03/10 11:26:31;;;;;;;5.20;5.00;;;;;;;14.01;27.28;101906.50;6026039;23;20029;-72
2022/03/10 11:28:59;;;;;;;5.80;5.50;;;;;;;13.87;26.70;101869.34;5993643;23;20055;-72
2022/03/10 11:31:28;;;;;;;7.28;6.88;;;;;;;14.09;26.59;101888.53;6027453;23;20034;-73
2022/03/10 11:33:55;;;;;;;5.25;4.95;;;;;;;13.74;26.40;101826.84;5985869;23;20016;-71
2022/03/10 11:36:32;;;;;;;5.90;5.38;;;;;;;14.04;27.14;101863.25;5995264;23;20514;-70
2022/03/10 11:39:07;;;;;;;5.43;5.07;;;;;;;14.43;26.49;101886.00;5971474;23;20031;-70